createdAt,value
2018-07-15T00:00:30.163Z,3.90
2018-07-15T00:02:06.045Z,4.07
2018-07-15T00:03:41.663Z,4.30
2018-07-15T00:05:17.251Z,3.90
2018-07-15T00:06:53.232Z,4.03
2018-07-15T00:08:29.335Z,4.17
2018-07-15T00:10:04.975Z,3.90
2018-07-15T00:11:40.615Z,4.20
2018-07-15T00:13:16.192Z,4.00
2018-07-15T00:14:51.763Z,4.20
2018-07-15T00:16:27.580Z,3.83
2018-07-15T00:18:03.275Z,3.90
2018-07-15T00:19:38.928Z,4.33
2018-07-15T00:21:14.997Z,4.00
2018-07-15T00:22:50.579Z,3.97
2018-07-15T00:24:26.187Z,4.17
2018-07-15T00:26:01.893Z,3.63
2018-07-15T00:27:37.586Z,3.80
2018-07-15T00:29:13.169Z,4.07
2018-07-15T00:30:48.769Z,4.03
2018-07-15T00:32:24.454Z,4.00
2018-07-15T00:34:00.144Z,4.30
2018-07-15T00:35:35.752Z,4.23
2018-07-15T00:37:11.369Z,3.90
2018-07-15T00:38:47.086Z,4.23
2018-07-15T00:40:22.690Z,4.00
2018-07-15T00:41:58.323Z,4.20
2018-07-15T00:43:34.035Z,4.33
2018-07-15T00:45:09.627Z,3.83
2018-07-15T00:46:45.195Z,4.00
2018-07-15T00:48:20.998Z,4.07
2018-07-15T00:49:56.966Z,4.13
2018-07-15T00:51:32.634Z,3.83
2018-07-15T00:53:08.634Z,3.90
2018-07-15T00:54:44.283Z,3.83
2018-07-15T00:56:19.991Z,4.17
2018-07-15T00:57:55.780Z,3.90
2018-07-15T00:59:31.904Z,4.00
2018-07-15T01:01:07.477Z,4.00
2018-07-15T01:02:43.112Z,3.83
2018-07-15T01:04:18.758Z,3.73
2018-07-15T01:05:54.638Z,4.10
2018-07-15T01:07:30.383Z,3.90
2018-07-15T01:09:08.059Z,4.47
2018-07-15T01:10:43.746Z,4.50
2018-07-15T01:12:19.324Z,4.23
2018-07-15T01:13:55.128Z,4.63
2018-07-15T01:15:30.720Z,4.00
2018-07-15T01:17:06.335Z,3.63
2018-07-15T01:18:41.921Z,3.90
2018-07-15T01:20:17.639Z,4.07
2018-07-15T01:21:53.287Z,3.80
2018-07-15T01:23:28.991Z,3.90
2018-07-15T01:25:05.136Z,3.50
2018-07-15T01:26:40.706Z,3.90
2018-07-15T01:28:16.583Z,3.97
2018-07-15T01:29:52.379Z,3.87
2018-07-15T01:31:27.968Z,3.70
2018-07-15T01:33:03.647Z,3.80
2018-07-15T01:34:39.251Z,3.40
2018-07-15T01:36:15.141Z,3.90
2018-07-15T01:37:51.339Z,3.50
2018-07-15T01:39:26.938Z,4.23
2018-07-15T01:41:02.502Z,3.30
2018-07-15T01:42:38.467Z,3.60
2018-07-15T01:44:14.051Z,4.00
2018-07-15T01:45:49.642Z,3.93
2018-07-15T01:47:25.450Z,3.70
2018-07-15T01:49:01.091Z,3.90
2018-07-15T01:50:36.654Z,4.17
2018-07-15T01:52:12.298Z,3.70
2018-07-15T01:53:48.041Z,3.83
2018-07-15T01:55:23.804Z,3.67
2018-07-15T01:56:59.471Z,3.77
2018-07-15T01:58:35.375Z,3.80
2018-07-15T02:00:10.951Z,3.70
2018-07-15T02:01:46.578Z,3.87
2018-07-15T02:03:22.235Z,3.70
2018-07-15T02:04:57.811Z,4.07
2018-07-15T02:06:33.403Z,3.83
2018-07-15T02:08:09.002Z,3.80
2018-07-15T02:09:44.855Z,4.13
2018-07-15T02:11:20.658Z,4.07
2018-07-15T02:12:56.223Z,4.03
2018-07-15T02:14:31.915Z,3.70
2018-07-15T02:16:07.811Z,3.97
2018-07-15T02:17:43.480Z,3.73
2018-07-15T02:19:19.039Z,3.90
2018-07-15T02:20:54.785Z,3.80
2018-07-15T02:22:30.391Z,4.10
2018-07-15T02:24:06.090Z,4.10
2018-07-15T02:25:41.915Z,3.87
2018-07-15T02:27:17.667Z,3.93
2018-07-15T02:28:53.259Z,3.70
2018-07-15T02:30:28.843Z,4.20
2018-07-15T02:32:04.427Z,4.00
2018-07-15T02:33:40.053Z,4.00
2018-07-15T02:35:15.670Z,3.90
2018-07-15T02:36:51.348Z,4.13
2018-07-15T02:38:26.948Z,3.63
2018-07-15T02:40:02.581Z,3.67
2018-07-15T02:41:38.395Z,3.80
2018-07-15T02:43:14.089Z,3.50
2018-07-15T02:44:49.710Z,3.80
2018-07-15T02:46:25.387Z,4.03
2018-07-15T02:48:00.988Z,3.73
2018-07-15T02:49:36.558Z,4.23
2018-07-15T02:51:12.191Z,4.10
2018-07-15T02:52:47.847Z,3.57
2018-07-15T02:54:23.402Z,4.00
2018-07-15T02:55:58.975Z,3.73
2018-07-15T02:57:34.703Z,4.10
2018-07-15T02:59:10.367Z,3.97
2018-07-15T03:00:46.181Z,3.80
2018-07-15T03:02:21.870Z,3.53
2018-07-15T03:03:57.439Z,4.10
2018-07-15T03:05:33.019Z,3.90
2018-07-15T03:07:09.015Z,3.80
2018-07-15T03:08:44.651Z,4.27
2018-07-15T03:10:20.249Z,4.03
2018-07-15T03:11:55.867Z,4.00
2018-07-15T03:13:31.445Z,4.00
2018-07-15T03:15:07.197Z,4.40
2018-07-15T03:16:43.001Z,4.30
2018-07-15T03:18:18.727Z,3.90
2018-07-15T03:19:54.313Z,4.20
2018-07-15T03:21:29.941Z,4.27
2018-07-15T03:23:05.619Z,4.10
2018-07-15T03:24:41.275Z,4.40
2018-07-15T03:26:16.858Z,4.17
2018-07-15T03:27:52.443Z,3.83
2018-07-15T03:29:28.016Z,4.00
2018-07-15T03:31:03.927Z,4.33
2018-07-15T03:32:39.659Z,3.90
2018-07-15T03:34:15.316Z,4.13
2018-07-15T03:35:50.874Z,4.03
2018-07-15T03:37:26.464Z,4.07
2018-07-15T03:39:02.023Z,4.50
2018-07-15T03:40:37.627Z,4.67
2018-07-15T03:42:13.210Z,4.57
2018-07-15T03:43:49.283Z,4.07
2018-07-15T03:45:25.031Z,4.17
2018-07-15T03:47:00.778Z,4.60
2018-07-15T03:48:36.937Z,4.30
2018-07-15T03:50:12.588Z,4.27
2018-07-15T03:51:48.215Z,4.70
2018-07-15T03:53:23.887Z,4.93
2018-07-15T03:54:59.471Z,4.70
2018-07-15T03:56:35.075Z,4.37
2018-07-15T03:58:10.947Z,4.90
2018-07-15T03:59:46.741Z,5.50
2018-07-15T04:01:22.371Z,5.43
2018-07-15T04:02:58.060Z,5.17
2018-07-15T04:04:33.831Z,5.37
2018-07-15T04:06:09.452Z,4.87
2018-07-15T04:07:45.193Z,4.77
2018-07-15T04:09:20.767Z,4.87
2018-07-15T04:10:56.315Z,4.90
2018-07-15T04:12:32.099Z,4.53
2018-07-15T04:14:07.690Z,4.87
2018-07-15T04:15:43.299Z,4.63
2018-07-15T04:17:19.039Z,4.83
2018-07-15T04:18:54.692Z,5.50
2018-07-15T04:20:30.319Z,4.97
2018-07-15T04:22:06.016Z,5.70
2018-07-15T04:23:41.640Z,5.07
2018-07-15T04:25:17.277Z,5.13
2018-07-15T04:26:52.846Z,5.20
2018-07-15T04:28:28.472Z,5.37
2018-07-15T04:30:04.146Z,4.93
2018-07-15T04:31:39.713Z,5.07
2018-07-15T04:33:15.350Z,4.83
2018-07-15T04:34:51.106Z,4.87
2018-07-15T04:36:26.717Z,4.73
2018-07-15T04:38:02.441Z,5.13
2018-07-15T04:39:38.066Z,5.30
2018-07-15T04:41:13.632Z,4.90
2018-07-15T04:42:49.629Z,5.00
2018-07-15T04:44:25.218Z,5.07
2018-07-15T04:46:00.887Z,4.17
2018-07-15T04:47:36.482Z,4.17
2018-07-15T04:49:12.083Z,5.10
2018-07-15T04:50:47.710Z,5.00
2018-07-15T04:52:23.375Z,4.37
2018-07-15T04:53:58.974Z,4.37
2018-07-15T04:55:34.569Z,5.20
2018-07-15T04:57:10.194Z,4.77
2018-07-15T04:58:45.799Z,4.60
2018-07-15T05:00:21.370Z,4.50
2018-07-15T05:01:57.024Z,4.03
2018-07-15T05:03:33.019Z,4.00
2018-07-15T05:05:08.615Z,3.93
2018-07-15T05:06:44.626Z,4.33
2018-07-15T05:08:20.408Z,4.77
2018-07-15T05:09:56.062Z,4.43
2018-07-15T05:11:31.618Z,4.60
2018-07-15T05:13:07.243Z,4.47
2018-07-15T05:14:43.004Z,4.07
2018-07-15T05:16:18.579Z,3.80
2018-07-15T05:17:54.143Z,4.20
2018-07-15T05:19:29.757Z,4.33
2018-07-15T05:21:05.310Z,4.40
2018-07-15T05:22:40.967Z,4.07
2018-07-15T05:24:17.251Z,4.50
2018-07-15T05:25:52.892Z,4.67
2018-07-15T05:27:28.490Z,4.30
2018-07-15T05:29:04.096Z,4.57
2018-07-15T05:30:39.687Z,4.17
2018-07-15T05:32:15.470Z,4.20
2018-07-15T05:33:51.460Z,4.80
2018-07-15T05:35:27.137Z,4.30
2018-07-15T05:37:03.177Z,4.30
2018-07-15T05:38:39.005Z,4.30
2018-07-15T05:40:14.767Z,4.63
2018-07-15T05:41:50.911Z,4.77
2018-07-15T05:43:26.951Z,4.70
2018-07-15T05:45:03.736Z,5.00
2018-07-15T05:46:39.461Z,4.77
2018-07-15T05:48:15.347Z,5.20
2018-07-15T05:49:50.962Z,5.20
2018-07-15T05:51:26.550Z,5.17
2018-07-15T05:53:02.224Z,4.97
2018-07-15T05:54:37.901Z,5.53
2018-07-15T05:56:13.645Z,5.40
2018-07-15T05:57:49.485Z,5.10
2018-07-15T05:59:26.205Z,5.30
2018-07-15T06:01:01.811Z,4.90
2018-07-15T06:02:38.139Z,5.00
2018-07-15T06:04:13.717Z,5.57
2018-07-15T06:05:49.584Z,5.20
2018-07-15T06:07:25.186Z,5.97
2018-07-15T06:09:00.806Z,5.70
2018-07-15T06:10:36.413Z,5.27
2018-07-15T06:12:12.111Z,4.77
2018-07-15T06:13:47.655Z,4.77
2018-07-15T06:15:24.333Z,4.77
2018-07-15T06:16:59.919Z,5.73
2018-07-15T06:18:35.887Z,5.17
2018-07-15T06:20:11.489Z,4.80
2018-07-15T06:21:47.384Z,4.37
2018-07-15T06:23:22.997Z,5.00
2018-07-15T06:24:58.559Z,4.90
2018-07-15T06:26:34.238Z,5.40
2018-07-15T06:28:09.836Z,5.50
2018-07-15T06:29:45.459Z,4.83
2018-07-15T06:31:21.047Z,4.47
2018-07-15T06:32:56.598Z,4.67
2018-07-15T06:34:33.256Z,4.20
2018-07-15T06:36:08.806Z,5.17
2018-07-15T06:37:44.505Z,5.20
2018-07-15T06:39:20.076Z,4.33
2018-07-15T06:40:55.630Z,5.00
2018-07-15T06:42:31.232Z,5.27
2018-07-15T06:44:07.253Z,5.20
2018-07-15T06:45:42.863Z,5.20
2018-07-15T06:47:18.657Z,5.10
2018-07-15T06:48:54.225Z,4.93
2018-07-15T06:50:29.796Z,5.17
2018-07-15T06:52:05.502Z,5.07
2018-07-15T06:53:41.371Z,4.90
2018-07-15T06:55:17.116Z,4.87
2018-07-15T06:56:52.886Z,4.73
2018-07-15T06:58:28.595Z,5.53
2018-07-15T07:00:04.381Z,5.33
2018-07-15T07:01:40.006Z,5.80
2018-07-15T07:03:15.852Z,5.50
2018-07-15T07:04:51.550Z,5.10
2018-07-15T07:06:27.347Z,5.40
2018-07-15T07:08:03.492Z,6.50
2018-07-15T07:09:39.079Z,5.07
2018-07-15T07:11:14.627Z,5.70
2018-07-15T07:12:51.363Z,5.20
2018-07-15T07:14:30.252Z,5.30
2018-07-15T07:16:06.133Z,5.40
2018-07-15T07:17:41.728Z,5.03
2018-07-15T07:19:17.475Z,5.30
2018-07-15T07:20:53.054Z,5.50
2018-07-15T07:22:28.993Z,5.87
2018-07-15T07:24:05.876Z,5.27
2018-07-15T07:25:43.970Z,5.03
2018-07-15T07:27:21.049Z,5.30
2018-07-15T07:29:02.729Z,5.60
2018-07-15T07:30:39.895Z,5.80
2018-07-15T07:32:15.688Z,5.50
2018-07-15T07:33:51.682Z,5.87
2018-07-15T07:35:27.326Z,4.83
2018-07-15T07:37:02.869Z,5.20
2018-07-15T07:38:38.899Z,4.67
2018-07-15T07:40:14.631Z,4.77
2018-07-15T07:41:50.479Z,5.10
2018-07-15T07:43:26.113Z,5.00
2018-07-15T07:45:01.716Z,5.80
2018-07-15T07:46:39.508Z,5.17
2018-07-15T07:48:15.088Z,5.10
2018-07-15T07:49:50.718Z,4.83
2018-07-15T07:51:26.260Z,5.40
2018-07-15T07:53:01.828Z,5.00
2018-07-15T07:54:37.679Z,5.83
2018-07-15T07:56:13.359Z,5.33
2018-07-15T07:57:49.036Z,5.63
2018-07-15T07:59:24.797Z,5.10
2018-07-15T08:01:00.502Z,4.90
2018-07-15T08:02:36.311Z,5.00
2018-07-15T08:04:11.967Z,5.37
2018-07-15T08:05:48.071Z,5.10
2018-07-15T08:07:23.990Z,5.57
2018-07-15T08:08:59.735Z,6.50
2018-07-15T08:10:35.570Z,5.40
2018-07-15T08:12:11.419Z,5.30
2018-07-15T08:13:47.073Z,6.53
2018-07-15T08:15:22.763Z,6.07
2018-07-15T08:16:58.631Z,5.60
2018-07-15T08:18:34.458Z,5.20
2018-07-15T08:20:10.263Z,5.30
2018-07-15T08:21:46.065Z,5.03
2018-07-15T08:23:21.681Z,5.67
2018-07-15T08:24:57.282Z,4.87
2018-07-15T08:26:33.026Z,4.57
2018-07-15T08:28:08.671Z,5.00
2018-07-15T08:29:55.616Z,5.53
2018-07-15T08:31:31.239Z,5.10
2018-07-15T08:33:07.094Z,5.63
2018-07-15T08:34:42.990Z,5.40
2018-07-15T08:36:18.879Z,4.50
2018-07-15T08:37:54.791Z,4.47
2018-07-15T08:39:30.399Z,4.97
2018-07-15T08:41:06.100Z,5.23
2018-07-15T08:42:41.838Z,5.70
2018-07-15T08:44:17.574Z,5.73
2018-07-15T08:45:53.280Z,5.60
2018-07-15T08:47:29.203Z,5.00
2018-07-15T08:49:05.931Z,4.50
2018-07-15T08:50:41.798Z,4.57
2018-07-15T08:52:17.841Z,4.83
2018-07-15T08:53:53.478Z,5.50
2018-07-15T08:55:29.653Z,5.00
2018-07-15T08:57:05.686Z,4.77
2018-07-15T08:58:41.680Z,4.87
2018-07-15T09:00:19.098Z,4.80
2018-07-15T09:01:56.126Z,5.13
2018-07-15T09:03:39.478Z,4.90
2018-07-15T09:05:15.428Z,4.70
2018-07-15T09:06:51.267Z,4.77
2018-07-15T09:08:27.413Z,4.80
2018-07-15T09:10:02.989Z,4.80
2018-07-15T09:11:38.643Z,4.73
2018-07-15T09:13:14.500Z,5.13
2018-07-15T09:14:56.704Z,4.40
2018-07-15T09:16:40.924Z,4.80
2018-07-15T09:18:24.829Z,4.63
2018-07-15T09:20:09.499Z,5.20
2018-07-15T09:21:54.083Z,4.70
2018-07-15T09:23:36.840Z,4.40
2018-07-15T09:25:17.662Z,4.33
2018-07-15T09:26:57.362Z,5.00
2018-07-15T09:28:39.804Z,4.20
2018-07-15T09:30:24.409Z,4.53
2018-07-15T09:32:08.110Z,4.47
2018-07-15T09:33:47.212Z,4.53
2018-07-15T09:35:29.203Z,4.27
2018-07-15T09:37:10.894Z,4.10
2018-07-15T09:38:53.782Z,4.67
2018-07-15T09:40:38.131Z,4.30
2018-07-15T09:42:14.889Z,3.83
2018-07-15T09:43:57.489Z,4.60
2018-07-15T09:45:41.713Z,4.70
2018-07-15T09:47:23.218Z,4.77
2018-07-15T09:49:07.350Z,4.13
2018-07-15T09:50:44.800Z,3.47
2018-07-15T09:52:29.185Z,3.87
2018-07-15T09:54:12.059Z,3.73
2018-07-15T09:55:54.599Z,4.03
2018-07-15T09:57:35.436Z,3.90
2018-07-15T09:59:15.806Z,3.83
2018-07-15T10:00:58.968Z,4.40
2018-07-15T10:02:42.324Z,4.40
2018-07-15T10:04:26.119Z,4.53
2018-07-15T10:06:09.155Z,3.83
2018-07-15T10:07:47.829Z,3.57
2018-07-15T10:09:28.231Z,3.60
2018-07-15T10:11:13.328Z,3.73
2018-07-15T10:12:58.128Z,3.90
2018-07-15T10:14:39.172Z,3.57
2018-07-15T10:16:20.918Z,3.10
2018-07-15T10:18:01.878Z,3.27
2018-07-15T10:19:45.321Z,3.83
2018-07-15T10:21:29.503Z,3.40
2018-07-15T10:23:09.002Z,3.40
2018-07-15T10:24:51.320Z,3.83
2018-07-15T10:26:33.951Z,3.40
2018-07-15T10:28:17.334Z,3.13
2018-07-15T10:30:00.850Z,3.30
2018-07-15T10:31:37.256Z,3.07
2018-07-15T10:33:15.680Z,3.20
2018-07-15T10:34:57.530Z,3.30
2018-07-15T10:36:39.413Z,3.10
2018-07-15T10:38:15.775Z,3.00
2018-07-15T10:39:59.512Z,3.43
2018-07-15T10:41:43.353Z,2.90
2018-07-15T10:43:28.667Z,3.10
2018-07-15T10:45:13.661Z,3.40
2018-07-15T10:46:53.037Z,3.40
2018-07-15T10:48:38.156Z,3.10
2018-07-15T10:50:21.658Z,3.27
2018-07-15T10:52:05.625Z,3.10
2018-07-15T10:53:52.531Z,3.23
2018-07-15T10:55:29.427Z,3.30
2018-07-15T10:57:13.062Z,2.97
2018-07-15T10:58:55.656Z,3.20
2018-07-15T11:00:36.727Z,3.10
2018-07-15T11:02:19.762Z,3.03
2018-07-15T11:03:56.489Z,2.87
2018-07-15T11:05:39.320Z,2.90
2018-07-15T11:07:20.260Z,2.80
2018-07-15T11:09:04.452Z,3.37
2018-07-15T11:10:41.712Z,3.00
2018-07-15T11:12:25.372Z,2.60
2018-07-15T11:14:11.260Z,2.73
2018-07-15T11:15:55.973Z,2.90
2018-07-15T11:17:42.842Z,3.00
2018-07-15T11:19:27.082Z,3.00
2018-07-15T11:21:04.649Z,2.90
2018-07-15T11:22:48.239Z,2.90
2018-07-15T11:24:31.856Z,3.20
2018-07-15T11:26:15.460Z,3.00
2018-07-15T11:27:52.263Z,2.90
2018-07-15T11:29:28.206Z,2.97
2018-07-15T11:31:03.884Z,2.67
2018-07-15T11:32:40.035Z,2.40
2018-07-15T11:34:15.640Z,3.20
2018-07-15T11:35:51.467Z,3.23
2018-07-15T11:37:27.440Z,3.33
2018-07-15T11:39:04.894Z,3.10
2018-07-15T11:40:41.196Z,2.80
2018-07-15T11:42:16.835Z,3.17
2018-07-15T11:43:52.583Z,3.00
2018-07-15T11:45:28.533Z,2.80
2018-07-15T11:47:05.141Z,2.70
2018-07-15T11:48:41.172Z,3.10
2018-07-15T11:50:16.848Z,3.10
2018-07-15T11:51:52.736Z,2.87
2018-07-15T11:53:28.504Z,2.70
2018-07-15T11:55:04.123Z,3.23
2018-07-15T11:56:39.833Z,2.93
2018-07-15T11:58:15.598Z,3.00
2018-07-15T11:59:51.759Z,2.53
2018-07-15T12:01:27.436Z,2.20
2018-07-15T12:03:03.031Z,2.83
2018-07-15T12:04:38.899Z,2.30
2018-07-15T12:06:14.855Z,2.30
2018-07-15T12:07:55.992Z,2.53
2018-07-15T12:09:33.748Z,2.90
2018-07-15T12:11:10.232Z,2.90
2018-07-15T12:12:45.924Z,2.90
2018-07-15T12:16:40.657Z,2.63
2018-07-15T12:18:16.595Z,2.83
2018-07-15T12:19:54.670Z,3.30
2018-07-15T12:21:31.278Z,2.70
